createdAt,value
2022-10-30T00:00:26.582Z,0
2022-10-30T00:01:42.881Z,0
2022-10-30T00:02:58.179Z,0
2022-10-30T00:04:14.483Z,0
2022-10-30T00:05:30.764Z,0
2022-10-30T00:06:47.067Z,0
2022-10-30T00:08:03.366Z,0
2022-10-30T00:09:19.648Z,0
2022-10-30T00:10:35.948Z,0
2022-10-30T00:11:52.235Z,0
2022-10-30T00:13:08.518Z,0
2022-10-30T00:14:24.829Z,0
2022-10-30T00:15:41.108Z,0
2022-10-30T00:16:57.399Z,0
2022-10-30T00:18:13.695Z,0
2022-10-30T00:19:29.002Z,0
2022-10-30T00:20:45.294Z,0
2022-10-30T00:23:17.882Z,0
2022-10-30T00:24:34.178Z,0
2022-10-30T00:25:50.464Z,0
2022-10-30T00:27:06.755Z,0
2022-10-30T00:28:23.056Z,0
2022-10-30T00:29:39.356Z,0
2022-10-30T00:30:55.633Z,0
2022-10-30T00:32:11.941Z,0
2022-10-30T00:33:28.216Z,0
2022-10-30T00:34:44.525Z,0
2022-10-30T00:35:59.825Z,0
2022-10-30T00:37:16.118Z,0
2022-10-30T00:38:32.417Z,0
2022-10-30T00:39:48.710Z,0
2022-10-30T00:41:04.992Z,0
2022-10-30T00:42:21.286Z,0
2022-10-30T00:43:37.587Z,0
2022-10-30T00:44:53.865Z,0
2022-10-30T00:46:10.160Z,0
2022-10-30T00:47:26.467Z,0
2022-10-30T00:48:42.760Z,0
2022-10-30T00:49:59.034Z,0
2022-10-30T00:51:15.335Z,0
2022-10-30T00:52:30.637Z,0
2022-10-30T00:53:46.928Z,0
2022-10-30T00:55:03.231Z,0
2022-10-30T00:56:19.513Z,0
2022-10-30T00:57:35.822Z,0
2022-10-30T00:58:52.103Z,0
2022-10-30T01:00:08.394Z,0
2022-10-30T01:01:24.683Z,0
2022-10-30T01:02:40.984Z,0
2022-10-30T01:03:57.275Z,0
2022-10-30T01:05:13.557Z,0
2022-10-30T01:06:29.848Z,0
2022-10-30T01:07:46.155Z,0
2022-10-30T01:09:01.444Z,0
2022-10-30T01:10:17.746Z,0
2022-10-30T01:11:34.043Z,0
2022-10-30T01:12:50.342Z,0
2022-10-30T01:14:06.619Z,0
2022-10-30T01:15:22.929Z,0
2022-10-30T01:16:39.209Z,0
2022-10-30T01:17:55.495Z,0
2022-10-30T01:19:11.789Z,0
2022-10-30T01:20:28.097Z,0
2022-10-30T01:21:44.371Z,0
2022-10-30T01:23:00.674Z,0
2022-10-30T01:24:16.967Z,0
2022-10-30T01:25:32.275Z,0
2022-10-30T01:26:48.570Z,0
2022-10-30T01:28:04.865Z,0
2022-10-30T01:29:21.148Z,0
2022-10-30T01:30:37.436Z,0
2022-10-30T01:31:53.743Z,0
2022-10-30T01:33:10.028Z,0
2022-10-30T01:34:26.328Z,0
2022-10-30T01:35:42.612Z,0
2022-10-30T01:36:58.906Z,0
2022-10-30T01:38:15.207Z,0
2022-10-30T01:40:47.787Z,0
2022-10-30T01:42:03.087Z,0
2022-10-30T01:43:19.390Z,0
2022-10-30T01:44:35.686Z,0
2022-10-30T01:45:51.973Z,0
2022-10-30T01:47:08.267Z,0
2022-10-30T01:48:24.562Z,0
2022-10-30T01:49:40.845Z,0
2022-10-30T01:50:57.142Z,0
2022-10-30T01:52:13.444Z,0
2022-10-30T01:53:29.724Z,0
2022-10-30T01:54:46.030Z,0
2022-10-30T01:56:02.317Z,0
2022-10-30T01:57:18.609Z,0
2022-10-30T01:58:33.910Z,0
2022-10-30T01:59:50.217Z,0
2022-10-30T02:01:06.493Z,0
2022-10-30T02:02:22.789Z,0
2022-10-30T02:03:39.082Z,0
2022-10-30T02:04:55.370Z,0
2022-10-30T02:06:11.666Z,0
2022-10-30T02:07:27.967Z,0
2022-10-30T02:08:44.258Z,0
2022-10-30T02:10:00.544Z,0
2022-10-30T02:12:33.135Z,0
2022-10-30T02:13:49.425Z,0
2022-10-30T02:15:04.723Z,0
2022-10-30T02:16:21.026Z,0
2022-10-30T02:17:37.310Z,0
2022-10-30T02:18:53.609Z,0
2022-10-30T02:20:09.915Z,0
2022-10-30T02:21:26.187Z,0
2022-10-30T02:23:58.791Z,0
2022-10-30T02:25:15.081Z,0
2022-10-30T02:26:31.376Z,0
2022-10-30T02:27:47.658Z,0
2022-10-30T02:29:03.953Z,0
2022-10-30T02:30:20.235Z,0
2022-10-30T02:31:35.556Z,0
2022-10-30T02:32:51.848Z,0
2022-10-30T02:34:08.138Z,0
2022-10-30T02:35:24.438Z,0
2022-10-30T02:36:40.718Z,0
2022-10-30T02:37:57.023Z,0
2022-10-30T02:39:13.302Z,0
2022-10-30T02:40:29.594Z,0
2022-10-30T02:41:45.900Z,0
2022-10-30T02:43:02.196Z,0
2022-10-30T02:44:18.486Z,0
2022-10-30T02:45:34.766Z,0
2022-10-30T02:46:51.068Z,0
2022-10-30T02:48:06.367Z,0
2022-10-30T02:49:22.662Z,0
2022-10-30T02:50:38.960Z,0
2022-10-30T02:51:55.257Z,0
2022-10-30T02:53:11.536Z,0
2022-10-30T02:54:27.829Z,0
2022-10-30T02:55:44.121Z,0
2022-10-30T02:57:00.413Z,0
2022-10-30T02:58:16.707Z,0
2022-10-30T02:59:33.004Z,0
2022-10-30T03:00:49.292Z,0
2022-10-30T03:02:05.587Z,0
2022-10-30T03:03:21.875Z,0
2022-10-30T03:04:37.203Z,0
2022-10-30T03:05:53.496Z,0
2022-10-30T03:07:09.773Z,0
2022-10-30T03:08:26.069Z,0
2022-10-30T03:09:42.358Z,0
2022-10-30T03:10:58.655Z,0
2022-10-30T03:12:14.946Z,0
2022-10-30T03:13:31.248Z,0
2022-10-30T03:14:47.528Z,0
2022-10-30T03:16:03.818Z,0
2022-10-30T03:17:20.123Z,0
2022-10-30T03:18:36.411Z,0
2022-10-30T03:19:52.700Z,0
2022-10-30T03:21:09.124Z,0
2022-10-30T03:22:25.403Z,0
2022-10-30T03:23:41.704Z,0
2022-10-30T03:24:58.005Z,0
2022-10-30T03:26:14.289Z,0
2022-10-30T03:27:30.575Z,0
2022-10-30T03:28:46.864Z,0
2022-10-30T03:30:03.161Z,0
2022-10-30T03:31:19.448Z,0
2022-10-30T03:32:35.749Z,0
2022-10-30T03:33:52.048Z,0
2022-10-30T03:35:08.325Z,0
2022-10-30T03:36:24.637Z,0
2022-10-30T03:37:39.947Z,0
2022-10-30T03:38:56.233Z,0
2022-10-30T03:40:12.519Z,0
2022-10-30T03:41:28.818Z,0
2022-10-30T03:42:45.111Z,0
2022-10-30T03:44:01.405Z,0
2022-10-30T03:45:16.706Z,0
2022-10-30T03:46:33.008Z,0
2022-10-30T03:47:49.307Z,0
2022-10-30T03:49:05.583Z,0
2022-10-30T03:50:21.887Z,0
2022-10-30T03:51:38.179Z,0
2022-10-30T03:52:54.477Z,0
2022-10-30T03:54:10.759Z,0
2022-10-30T03:55:27.056Z,0
2022-10-30T03:56:43.360Z,0
2022-10-30T03:57:59.632Z,0
2022-10-30T03:59:15.939Z,0
2022-10-30T04:00:32.228Z,0
2022-10-30T04:01:47.539Z,0
2022-10-30T04:03:03.829Z,0
2022-10-30T04:04:20.130Z,0
2022-10-30T04:05:36.409Z,0
2022-10-30T04:06:52.703Z,0
2022-10-30T04:08:09.008Z,0
2022-10-30T04:09:25.292Z,0
2022-10-30T04:10:41.593Z,0
2022-10-30T04:11:57.882Z,0
2022-10-30T04:13:14.172Z,0
2022-10-30T04:14:30.472Z,0
2022-10-30T04:15:46.764Z,0
2022-10-30T04:17:03.043Z,0
2022-10-30T04:18:18.346Z,0
2022-10-30T04:19:34.645Z,0
2022-10-30T04:20:50.940Z,0
2022-10-30T04:22:07.236Z,0
2022-10-30T04:23:23.525Z,0
2022-10-30T04:24:39.811Z,0
2022-10-30T04:25:56.107Z,0
2022-10-30T04:27:12.403Z,0
2022-10-30T04:28:28.701Z,0
2022-10-30T04:29:44.983Z,0
2022-10-30T04:31:01.288Z,0
2022-10-30T04:32:17.572Z,0
2022-10-30T04:33:33.875Z,0
2022-10-30T04:34:50.276Z,0
2022-10-30T04:36:06.575Z,0
2022-10-30T04:37:22.867Z,0
2022-10-30T04:38:39.156Z,0
2022-10-30T04:39:55.461Z,0
2022-10-30T04:41:11.739Z,0
2022-10-30T04:42:28.035Z,0
2022-10-30T04:43:44.320Z,0
2022-10-30T04:45:00.625Z,0
2022-10-30T04:46:16.913Z,0
2022-10-30T04:47:33.211Z,0
2022-10-30T04:48:49.500Z,0
2022-10-30T04:50:05.787Z,0
2022-10-30T04:51:22.195Z,0
2022-10-30T04:52:38.496Z,0
2022-10-30T04:53:54.791Z,0
2022-10-30T04:55:11.081Z,0
2022-10-30T04:56:27.366Z,0
2022-10-30T04:57:43.668Z,0
2022-10-30T04:58:59.956Z,0
2022-10-30T05:00:16.000Z,0
2022-10-30T05:01:32.543Z,0
2022-10-30T05:02:48.847Z,0
2022-10-30T05:04:05.133Z,0
2022-10-30T05:05:21.415Z,0
2022-10-30T05:06:37.725Z,0
2022-10-30T05:07:53.026Z,0
2022-10-30T05:09:09.326Z,0
2022-10-30T05:10:25.616Z,0
2022-10-30T05:11:41.896Z,0
2022-10-30T05:12:58.195Z,0
2022-10-30T05:14:14.486Z,0
2022-10-30T05:15:30.785Z,0
2022-10-30T05:16:47.074Z,0
2022-10-30T05:18:03.355Z,0
2022-10-30T05:19:19.665Z,0
2022-10-30T05:20:35.948Z,0
2022-10-30T05:21:52.237Z,0
2022-10-30T05:23:08.526Z,0
2022-10-30T05:24:23.834Z,0
2022-10-30T05:25:40.146Z,0
2022-10-30T05:26:56.436Z,0
2022-10-30T05:28:12.717Z,0
2022-10-30T05:29:29.019Z,0
2022-10-30T05:30:45.312Z,0
2022-10-30T05:32:01.610Z,0
2022-10-30T05:33:17.901Z,0
2022-10-30T05:34:34.193Z,0
2022-10-30T05:35:50.423Z,1
2022-10-30T05:37:06.674Z,1
2022-10-30T05:38:22.902Z,1
2022-10-30T05:39:39.144Z,1
2022-10-30T05:40:54.413Z,2
2022-10-30T05:42:10.655Z,2
2022-10-30T05:43:26.890Z,3
2022-10-30T05:44:43.119Z,2
2022-10-30T05:45:59.371Z,3
2022-10-30T05:47:15.609Z,2
2022-10-30T05:48:31.843Z,5
2022-10-30T05:49:48.073Z,6
2022-10-30T05:51:04.325Z,11
2022-10-30T05:52:20.550Z,13
2022-10-30T05:53:36.797Z,12
2022-10-30T05:54:53.034Z,17
2022-10-30T05:56:09.263Z,17
2022-10-30T05:57:24.521Z,20
2022-10-30T05:58:40.759Z,28
2022-10-30T05:59:56.997Z,26
2022-10-30T06:01:13.245Z,31
2022-10-30T06:02:29.482Z,37
2022-10-30T06:03:45.717Z,43
2022-10-30T06:05:01.949Z,47
2022-10-30T06:06:18.193Z,54
2022-10-30T06:07:34.425Z,59
2022-10-30T06:08:50.671Z,63
2022-10-30T06:10:06.905Z,73
2022-10-30T06:11:23.151Z,80
2022-10-30T06:12:39.387Z,87
2022-10-30T06:13:54.643Z,97
2022-10-30T06:15:10.875Z,108
2022-10-30T06:16:27.115Z,120
2022-10-30T06:17:43.359Z,133
2022-10-30T06:18:59.590Z,152
2022-10-30T06:20:15.827Z,163
2022-10-30T06:21:32.075Z,173
2022-10-30T06:22:48.308Z,191
2022-10-30T06:24:04.547Z,217
2022-10-30T06:25:20.791Z,237
2022-10-30T06:26:37.020Z,259
2022-10-30T06:27:53.272Z,279
2022-10-30T06:29:09.510Z,298
2022-10-30T06:30:24.768Z,317
2022-10-30T06:31:40.994Z,332
2022-10-30T06:32:57.236Z,349
2022-10-30T06:34:13.480Z,384
2022-10-30T06:35:29.725Z,414
2022-10-30T06:36:45.958Z,437
2022-10-30T06:38:02.195Z,455
2022-10-30T06:39:18.429Z,481
2022-10-30T06:40:34.676Z,506
2022-10-30T06:41:50.912Z,530
2022-10-30T06:43:07.143Z,557
2022-10-30T06:45:39.618Z,602
2022-10-30T06:46:54.888Z,638
2022-10-30T06:48:11.117Z,672
2022-10-30T06:49:27.348Z,696
2022-10-30T06:50:43.602Z,739
2022-10-30T06:51:59.843Z,764
2022-10-30T06:53:16.065Z,804
2022-10-30T06:54:32.316Z,814
2022-10-30T06:55:48.560Z,821
2022-10-30T06:57:04.797Z,855
2022-10-30T06:58:21.021Z,876
2022-10-30T06:59:37.274Z,901
2022-10-30T07:00:53.513Z,912
2022-10-30T07:02:09.742Z,923
2022-10-30T07:03:25.003Z,933
2022-10-30T07:04:41.245Z,952
2022-10-30T07:05:57.478Z,1011
2022-10-30T07:07:13.716Z,1031
2022-10-30T07:08:29.962Z,1054
2022-10-30T07:09:46.202Z,1071
2022-10-30T07:11:02.438Z,1111
2022-10-30T07:12:18.675Z,1145
2022-10-30T07:13:34.903Z,1174
2022-10-30T07:14:51.148Z,1206
2022-10-30T07:16:07.381Z,1181
2022-10-30T07:17:23.629Z,1228
2022-10-30T07:18:39.873Z,1241
2022-10-30T07:19:55.124Z,1288
2022-10-30T07:21:11.363Z,1383
2022-10-30T07:22:27.586Z,1466
2022-10-30T07:23:43.827Z,1535
2022-10-30T07:25:00.079Z,1594
2022-10-30T07:26:16.302Z,1643
2022-10-30T07:27:32.560Z,1691
2022-10-30T07:28:48.789Z,1650
2022-10-30T07:30:05.023Z,1642
2022-10-30T07:31:21.256Z,1681
2022-10-30T07:32:37.511Z,1734
2022-10-30T07:33:53.744Z,1881
2022-10-30T07:35:09.973Z,1859
2022-10-30T07:36:26.349Z,1779
2022-10-30T07:37:42.574Z,1841
2022-10-30T07:38:58.816Z,1942
2022-10-30T07:40:15.063Z,1928
2022-10-30T07:41:31.304Z,1862
2022-10-30T07:42:47.539Z,1825
2022-10-30T07:44:03.772Z,1857
2022-10-30T07:45:20.014Z,1805
2022-10-30T07:46:36.258Z,1955
2022-10-30T07:47:52.488Z,1968
2022-10-30T07:49:08.722Z,1995
2022-10-30T07:50:24.956Z,2092
2022-10-30T07:51:41.209Z,1894
2022-10-30T07:52:56.458Z,1970
2022-10-30T07:54:12.703Z,2129
2022-10-30T07:55:28.946Z,2145
2022-10-30T07:56:45.182Z,2197
2022-10-30T07:58:01.405Z,2275
2022-10-30T07:59:17.644Z,2265
2022-10-30T08:00:33.892Z,2294
2022-10-30T08:01:49.149Z,2406
2022-10-30T08:03:05.399Z,2426
2022-10-30T08:04:21.626Z,2413
2022-10-30T08:05:37.857Z,2410
2022-10-30T08:06:54.103Z,2577
2022-10-30T08:08:10.351Z,2445
2022-10-30T08:09:26.583Z,2433
2022-10-30T08:10:42.824Z,2357
2022-10-30T08:11:59.054Z,2186
2022-10-30T08:13:15.292Z,2439
2022-10-30T08:14:31.525Z,2003
2022-10-30T08:15:47.768Z,2033
2022-10-30T08:17:04.016Z,2027
2022-10-30T08:18:19.264Z,1973
2022-10-30T08:19:35.515Z,2075
2022-10-30T08:20:51.739Z,2351
2022-10-30T08:22:07.975Z,2262
2022-10-30T08:23:24.215Z,2267
2022-10-30T08:24:40.450Z,1009
2022-10-30T08:25:56.696Z,2507
2022-10-30T08:27:12.946Z,5846
2022-10-30T08:28:29.175Z,1897
2022-10-30T08:29:45.407Z,4129
2022-10-30T08:31:01.643Z,2982
2022-10-30T08:32:17.883Z,2738
2022-10-30T08:33:34.132Z,2680
2022-10-30T08:34:49.383Z,3086
2022-10-30T08:36:05.621Z,3977
2022-10-30T08:37:21.856Z,3244
2022-10-30T08:38:38.100Z,3008
2022-10-30T08:39:54.329Z,2259
2022-10-30T08:41:10.569Z,1284
2022-10-30T08:42:26.820Z,6208
2022-10-30T08:43:43.047Z,7424
2022-10-30T08:44:59.283Z,4970
2022-10-30T08:46:15.524Z,2992
2022-10-30T08:47:31.776Z,1397
2022-10-30T08:48:48.013Z,12282
2022-10-30T08:50:04.235Z,13871
2022-10-30T08:51:19.494Z,6207
2022-10-30T08:52:35.729Z,2537
2022-10-30T08:53:51.977Z,2082
2022-10-30T08:55:08.214Z,1915
2022-10-30T08:56:24.448Z,1938
2022-10-30T08:57:40.690Z,1872
2022-10-30T08:58:56.925Z,2124
2022-10-30T09:00:13.180Z,1937
2022-10-30T09:01:29.408Z,1251
2022-10-30T09:02:45.646Z,3518
2022-10-30T09:04:01.885Z,15951
2022-10-30T09:05:18.125Z,18404
2022-10-30T09:06:34.355Z,3450
2022-10-30T09:07:49.616Z,2329
2022-10-30T09:09:05.855Z,7488
2022-10-30T09:10:22.090Z,16588
2022-10-30T09:11:38.336Z,22384
2022-10-30T09:12:54.568Z,20452
2022-10-30T09:14:10.807Z,19115
2022-10-30T09:15:27.055Z,17441
2022-10-30T09:16:43.286Z,15600
2022-10-30T09:17:59.531Z,14018
2022-10-30T09:19:15.753Z,12750
2022-10-30T09:20:31.998Z,12271
2022-10-30T09:21:48.244Z,14122
2022-10-30T09:23:04.472Z,15570
2022-10-30T09:24:19.743Z,12892
2022-10-30T09:25:35.964Z,11935
2022-10-30T09:26:52.216Z,10713
2022-10-30T09:28:08.443Z,14517
2022-10-30T09:29:24.685Z,12333
2022-10-30T09:30:40.928Z,15091
2022-10-30T09:31:57.154Z,18343
2022-10-30T09:33:13.400Z,15613
2022-10-30T09:34:29.635Z,15066
2022-10-30T09:35:45.880Z,19379
2022-10-30T09:37:02.122Z,15677
2022-10-30T09:38:18.354Z,19921
2022-10-30T09:39:34.588Z,19293
2022-10-30T09:40:49.854Z,24873
2022-10-30T09:42:06.099Z,22483
2022-10-30T09:43:22.325Z,14290
2022-10-30T09:44:38.566Z,11469
2022-10-30T09:45:54.816Z,5390
2022-10-30T09:47:11.036Z,15143
2022-10-30T09:48:27.273Z,78793
2022-10-30T09:49:43.516Z,78933
2022-10-30T09:50:59.753Z,77673
2022-10-30T09:52:15.992Z,79611
2022-10-30T09:53:32.244Z,80205
2022-10-30T09:54:48.468Z,79967
2022-10-30T09:56:04.724Z,79467
2022-10-30T09:57:19.965Z,78780
2022-10-30T09:58:36.207Z,78446
2022-10-30T09:59:52.442Z,76377
2022-10-30T10:01:08.675Z,66093
2022-10-30T10:02:24.925Z,21537
2022-10-30T10:03:41.155Z,15787
2022-10-30T10:04:57.395Z,9100
2022-10-30T10:06:13.631Z,19604
2022-10-30T10:07:29.881Z,79392
2022-10-30T10:08:46.108Z,81139
2022-10-30T10:10:02.353Z,77542
2022-10-30T10:11:18.591Z,77021
2022-10-30T10:12:34.831Z,77897
2022-10-30T10:13:50.095Z,80710
2022-10-30T10:15:06.330Z,81498
2022-10-30T10:16:22.562Z,80078
2022-10-30T10:17:38.809Z,78704
2022-10-30T10:18:55.036Z,79570
2022-10-30T10:20:11.271Z,71469
2022-10-30T10:21:27.517Z,29066
2022-10-30T10:22:43.761Z,19057
2022-10-30T10:23:59.991Z,6725
2022-10-30T10:25:16.226Z,11291
2022-10-30T10:26:32.472Z,79278
2022-10-30T10:27:48.720Z,77618
2022-10-30T10:29:04.956Z,82605
2022-10-30T10:30:20.202Z,81005
2022-10-30T10:31:36.440Z,79282
2022-10-30T10:32:52.680Z,79398
2022-10-30T10:34:08.922Z,80030
2022-10-30T10:35:25.156Z,79079
2022-10-30T10:36:41.395Z,80795
2022-10-30T10:37:57.632Z,80310
2022-10-30T10:39:13.883Z,74469
2022-10-30T10:40:30.106Z,63718
2022-10-30T10:41:46.345Z,18057
2022-10-30T10:43:02.583Z,4089
2022-10-30T10:44:18.834Z,7469
2022-10-30T10:45:35.070Z,78115
2022-10-30T10:46:50.337Z,78578
2022-10-30T10:48:06.566Z,77844
2022-10-30T10:49:22.804Z,77490
2022-10-30T10:50:39.049Z,78638
2022-10-30T10:51:55.275Z,78735
2022-10-30T10:53:11.513Z,78586
2022-10-30T10:54:27.761Z,80017
2022-10-30T10:55:44.002Z,78128
2022-10-30T10:57:00.228Z,74206
2022-10-30T10:58:16.475Z,64420
2022-10-30T10:59:32.709Z,19887
2022-10-30T11:00:48.956Z,13082
2022-10-30T11:02:05.196Z,8990
2022-10-30T11:03:20.456Z,33268
2022-10-30T11:04:36.679Z,74522
2022-10-30T11:05:52.921Z,76365
2022-10-30T11:07:09.173Z,76987
2022-10-30T11:08:25.406Z,75959
2022-10-30T11:09:41.639Z,76354
2022-10-30T11:10:57.881Z,78073
2022-10-30T11:12:14.114Z,77185
2022-10-30T11:13:30.372Z,76537
2022-10-30T11:14:46.603Z,71651
2022-10-30T11:16:02.848Z,28516
2022-10-30T11:17:19.079Z,19108
2022-10-30T11:18:35.328Z,10891
2022-10-30T11:19:50.567Z,12390
2022-10-30T11:21:06.812Z,76052
2022-10-30T11:22:23.045Z,76756
2022-10-30T11:23:39.290Z,77424
2022-10-30T11:24:55.523Z,78262
2022-10-30T11:26:11.763Z,76811
2022-10-30T11:27:28.011Z,78341
2022-10-30T11:28:44.250Z,78457
2022-10-30T11:30:00.496Z,77039
2022-10-30T11:31:16.718Z,75528
2022-10-30T11:32:32.959Z,66540
2022-10-30T11:33:49.205Z,24577
2022-10-30T11:35:05.437Z,15991
2022-10-30T11:36:20.694Z,14017
2022-10-30T11:37:36.937Z,30778
2022-10-30T11:38:53.176Z,28461
2022-10-30T11:40:09.411Z,27656
2022-10-30T11:41:25.663Z,79128
2022-10-30T11:42:41.904Z,79035
2022-10-30T11:43:58.130Z,78225
2022-10-30T11:45:14.381Z,77720
2022-10-30T11:46:30.617Z,80486
2022-10-30T11:47:46.850Z,76969
2022-10-30T11:49:03.090Z,64633
2022-10-30T11:50:19.323Z,23867
2022-10-30T11:51:35.560Z,9880
2022-10-30T11:52:50.830Z,8159
2022-10-30T11:54:07.059Z,79721
2022-10-30T11:55:23.292Z,80320
2022-10-30T11:56:39.536Z,77738
2022-10-30T11:57:55.771Z,76226
2022-10-30T11:59:12.015Z,78037
2022-10-30T12:00:28.248Z,79547
2022-10-30T12:01:44.498Z,77984
2022-10-30T12:03:00.742Z,75214
2022-10-30T12:04:16.975Z,65688
2022-10-30T12:05:33.213Z,22706
2022-10-30T12:06:49.457Z,11400
2022-10-30T12:08:05.701Z,7288
2022-10-30T12:09:20.939Z,77406
2022-10-30T12:10:37.183Z,76553
2022-10-30T12:11:53.430Z,77727
2022-10-30T12:13:09.669Z,76259
2022-10-30T12:14:25.911Z,75908
2022-10-30T12:15:42.141Z,76123
2022-10-30T12:16:57.399Z,77657
2022-10-30T12:18:13.642Z,71663
2022-10-30T12:19:29.881Z,31123
2022-10-30T12:20:46.129Z,19743
2022-10-30T12:22:02.369Z,8193
2022-10-30T12:23:18.596Z,21137
2022-10-30T12:24:34.840Z,73309
2022-10-30T12:25:51.077Z,33776
2022-10-30T12:27:07.318Z,75671
2022-10-30T12:28:23.561Z,76250
2022-10-30T12:29:39.785Z,77097
2022-10-30T12:30:56.024Z,75874
2022-10-30T12:32:12.278Z,70394
2022-10-30T12:33:27.523Z,29202
2022-10-30T12:34:43.769Z,14938
2022-10-30T12:36:00.002Z,5570
2022-10-30T12:37:16.246Z,22706
2022-10-30T12:38:32.487Z,29843
2022-10-30T12:39:48.719Z,25847
2022-10-30T12:41:04.954Z,26291
2022-10-30T12:42:21.207Z,26360
2022-10-30T12:43:37.439Z,14304
2022-10-30T12:44:53.676Z,22721
2022-10-30T12:46:09.927Z,22007
2022-10-30T12:47:26.150Z,11969
2022-10-30T12:48:42.393Z,11197
2022-10-30T12:49:57.655Z,19076
2022-10-30T12:51:13.877Z,17447
2022-10-30T12:52:30.124Z,16616
2022-10-30T12:53:46.355Z,15621
2022-10-30T12:55:02.596Z,14703
2022-10-30T12:56:18.848Z,13118
2022-10-30T12:57:35.082Z,13367
2022-10-30T12:58:51.318Z,18795
2022-10-30T13:00:07.555Z,17606
2022-10-30T13:01:23.798Z,10712
2022-10-30T13:02:40.028Z,10219
2022-10-30T13:03:56.272Z,17455
2022-10-30T13:05:12.507Z,16660
2022-10-30T13:06:27.760Z,17054
2022-10-30T13:07:44.005Z,24364
2022-10-30T13:09:00.240Z,18506
2022-10-30T13:11:32.732Z,25369
2022-10-30T13:12:48.957Z,15690
2022-10-30T13:14:05.194Z,5690
2022-10-30T13:15:21.432Z,20892
2022-10-30T13:16:37.684Z,29338
2022-10-30T13:17:53.925Z,25503
2022-10-30T13:19:10.146Z,24510
2022-10-30T13:20:26.388Z,25723
2022-10-30T13:21:42.637Z,27186
2022-10-30T13:22:57.887Z,18453
2022-10-30T13:24:14.118Z,4962
2022-10-30T13:25:30.363Z,14621
2022-10-30T13:26:46.606Z,23804
2022-10-30T13:28:02.833Z,17864
2022-10-30T13:29:19.081Z,19224
2022-10-30T13:30:35.309Z,23359
2022-10-30T13:31:51.549Z,24484
2022-10-30T13:33:07.789Z,12741
2022-10-30T13:34:24.028Z,7062
2022-10-30T13:35:40.274Z,13804
2022-10-30T13:36:56.519Z,14813
2022-10-30T13:38:12.743Z,14522
2022-10-30T13:39:28.010Z,12166
2022-10-30T13:40:44.245Z,12394
2022-10-30T13:42:00.487Z,11835
2022-10-30T13:43:16.717Z,11872
2022-10-30T13:44:32.954Z,5580
2022-10-30T13:45:49.204Z,7288
2022-10-30T13:47:05.440Z,14484
2022-10-30T13:48:21.685Z,15311
2022-10-30T13:49:37.923Z,18425
2022-10-30T13:50:54.161Z,22091
2022-10-30T13:52:10.381Z,15071
2022-10-30T13:53:26.624Z,3844
2022-10-30T13:54:42.863Z,10295
2022-10-30T13:55:59.239Z,17426
2022-10-30T13:57:15.457Z,15750
2022-10-30T13:58:31.715Z,18803
2022-10-30T13:59:47.935Z,19434
2022-10-30T14:01:04.194Z,10523
2022-10-30T14:02:20.420Z,3873
2022-10-30T14:03:36.654Z,12121
2022-10-30T14:04:52.898Z,14146
2022-10-30T14:06:09.143Z,14811
2022-10-30T14:07:25.365Z,17021
2022-10-30T14:08:41.620Z,11998
2022-10-30T14:09:57.857Z,6792
2022-10-30T14:11:14.091Z,7882
2022-10-30T14:12:29.343Z,7119
2022-10-30T14:13:45.589Z,6152
2022-10-30T14:15:01.831Z,12867
2022-10-30T14:16:18.065Z,12562
2022-10-30T14:17:34.296Z,4325
2022-10-30T14:18:50.547Z,5403
2022-10-30T14:20:06.785Z,11252
2022-10-30T14:21:23.011Z,9552
2022-10-30T14:22:39.251Z,11339
2022-10-30T14:23:55.502Z,12931
2022-10-30T14:25:11.736Z,4745
2022-10-30T14:26:27.977Z,3174
2022-10-30T14:27:44.197Z,8494
2022-10-30T14:28:59.453Z,9415
2022-10-30T14:30:15.696Z,10049
2022-10-30T14:31:31.933Z,6797
2022-10-30T14:32:48.169Z,4200
2022-10-30T14:34:04.422Z,2206
2022-10-30T14:35:20.661Z,5033
2022-10-30T14:36:36.885Z,9061
2022-10-30T14:37:53.126Z,8938
2022-10-30T14:39:09.000Z,3122
2022-10-30T14:41:41.857Z,5517
2022-10-30T14:42:58.080Z,7645
2022-10-30T14:44:14.319Z,8206
2022-10-30T14:45:29.574Z,2881
2022-10-30T14:46:45.827Z,4514
2022-10-30T14:48:02.047Z,3670
2022-10-30T14:49:18.288Z,2917
2022-10-30T14:50:34.542Z,5484
2022-10-30T14:51:50.763Z,1764
2022-10-30T14:53:07.000Z,2688
2022-10-30T14:54:23.250Z,3085
2022-10-30T14:55:39.475Z,4782
2022-10-30T14:56:55.731Z,3540
2022-10-30T14:58:11.970Z,1241
2022-10-30T14:59:28.198Z,3213
2022-10-30T15:00:44.449Z,2903
2022-10-30T15:01:59.694Z,2590
2022-10-30T15:03:15.936Z,2182
2022-10-30T15:04:32.171Z,2395
2022-10-30T15:05:48.411Z,2193
2022-10-30T15:07:04.646Z,1085
2022-10-30T15:08:20.884Z,560
2022-10-30T15:09:37.126Z,1398
2022-10-30T15:10:53.358Z,1179
2022-10-30T15:12:09.593Z,814
2022-10-30T15:13:25.840Z,770
2022-10-30T15:14:42.070Z,740
2022-10-30T15:15:58.316Z,701
2022-10-30T15:17:14.567Z,666
2022-10-30T15:18:29.804Z,647
2022-10-30T15:19:46.059Z,635
2022-10-30T15:21:02.293Z,585
2022-10-30T15:22:18.532Z,549
2022-10-30T15:23:34.762Z,521
2022-10-30T15:24:51.016Z,480
2022-10-30T15:26:07.255Z,428
2022-10-30T15:27:23.488Z,372
2022-10-30T15:28:39.733Z,334
2022-10-30T15:29:55.954Z,309
2022-10-30T15:31:12.200Z,285
2022-10-30T15:32:28.444Z,263
2022-10-30T15:33:44.676Z,238
2022-10-30T15:34:59.943Z,215
2022-10-30T15:36:16.167Z,199
2022-10-30T15:37:32.415Z,183
2022-10-30T15:38:48.651Z,167
2022-10-30T15:40:04.878Z,154
2022-10-30T15:41:21.117Z,141
2022-10-30T15:42:37.365Z,127
2022-10-30T15:43:53.598Z,117
2022-10-30T15:45:09.834Z,108
2022-10-30T15:46:26.077Z,98
2022-10-30T15:47:42.324Z,88
2022-10-30T15:48:58.558Z,79
2022-10-30T15:50:14.803Z,71
2022-10-30T15:51:30.046Z,64
2022-10-30T15:52:46.300Z,59
2022-10-30T15:54:02.523Z,50
2022-10-30T15:55:18.777Z,45
2022-10-30T15:56:35.016Z,41
2022-10-30T15:57:51.239Z,37
2022-10-30T15:59:07.492Z,29
2022-10-30T16:00:23.720Z,26
2022-10-30T16:01:39.966Z,22
2022-10-30T16:02:56.191Z,17
2022-10-30T16:04:12.435Z,17
2022-10-30T16:05:28.672Z,10
2022-10-30T16:06:44.922Z,10
2022-10-30T16:08:00.162Z,7
2022-10-30T16:09:16.408Z,8
2022-10-30T16:10:32.645Z,5
2022-10-30T16:11:48.895Z,3
2022-10-30T16:13:05.121Z,3
2022-10-30T16:14:21.371Z,2
2022-10-30T16:15:37.595Z,2
2022-10-30T16:16:53.846Z,2
2022-10-30T16:18:10.087Z,1
2022-10-30T16:19:26.322Z,1
2022-10-30T16:20:42.545Z,1
2022-10-30T16:21:58.842Z,0
2022-10-30T16:23:15.136Z,0
2022-10-30T16:24:30.451Z,0
2022-10-30T16:25:46.732Z,0
2022-10-30T16:27:03.029Z,0
2022-10-30T16:28:19.322Z,0
2022-10-30T16:29:35.617Z,0
2022-10-30T16:30:51.917Z,0
2022-10-30T16:32:07.232Z,0
2022-10-30T16:33:23.523Z,0
2022-10-30T16:34:39.811Z,0
2022-10-30T16:35:56.104Z,0
2022-10-30T16:37:12.387Z,0
2022-10-30T16:38:28.699Z,0
2022-10-30T16:39:44.991Z,0
2022-10-30T16:41:01.286Z,0
2022-10-30T16:42:17.562Z,0
2022-10-30T16:43:33.861Z,0
2022-10-30T16:44:50.162Z,0
2022-10-30T16:46:06.444Z,0
2022-10-30T16:47:22.748Z,0
2022-10-30T16:48:38.046Z,0
2022-10-30T16:49:54.335Z,0
2022-10-30T16:51:10.635Z,0
2022-10-30T16:52:26.921Z,0
2022-10-30T16:53:43.222Z,0
2022-10-30T16:54:59.514Z,0
2022-10-30T16:56:15.808Z,0
2022-10-30T16:57:32.095Z,0
2022-10-30T16:58:48.389Z,0
2022-10-30T17:00:04.679Z,0
2022-10-30T17:01:20.984Z,0
2022-10-30T17:02:37.263Z,0
2022-10-30T17:03:53.551Z,0
2022-10-30T17:05:08.875Z,0
2022-10-30T17:06:25.153Z,0
2022-10-30T17:07:41.456Z,0
2022-10-30T17:08:57.744Z,0
2022-10-30T17:10:14.045Z,0
2022-10-30T17:11:30.333Z,0
2022-10-30T17:12:46.633Z,0
2022-10-30T17:14:02.913Z,0
2022-10-30T17:15:19.217Z,0
2022-10-30T17:16:35.513Z,0
2022-10-30T17:17:51.792Z,0
2022-10-30T17:19:08.082Z,0
2022-10-30T17:20:24.387Z,0
2022-10-30T17:21:39.682Z,0
2022-10-30T17:22:55.971Z,0
2022-10-30T17:24:12.275Z,0
2022-10-30T17:25:28.567Z,0
2022-10-30T17:26:44.861Z,0
2022-10-30T17:28:01.148Z,0
2022-10-30T17:29:17.439Z,0
2022-10-30T17:30:33.747Z,0
2022-10-30T17:31:50.000Z,0
2022-10-30T17:33:06.320Z,0
2022-10-30T17:34:22.608Z,0
2022-10-30T17:35:38.904Z,0
2022-10-30T17:36:55.203Z,0
2022-10-30T17:38:10.511Z,0
2022-10-30T17:39:26.809Z,0
2022-10-30T17:40:43.105Z,0
2022-10-30T17:41:59.388Z,0
2022-10-30T17:43:15.684Z,0